createdAt,value
2018-06-17T00:00:38.992Z,81.09
2018-06-17T00:01:48.812Z,81.18
2018-06-17T00:02:58.881Z,81.18
2018-06-17T00:04:08.707Z,81.57
2018-06-17T00:05:18.788Z,81.47
2018-06-17T00:06:28.611Z,81.27
2018-06-17T00:07:38.435Z,81.18
2018-06-17T00:08:48.521Z,81.18
2018-06-17T00:09:58.328Z,81.18
2018-06-17T00:11:08.146Z,81.47
2018-06-17T00:12:17.955Z,81.18
2018-06-17T00:13:27.789Z,81.18
2018-06-17T00:14:37.860Z,81.14
2018-06-17T00:15:47.936Z,81.47
2018-06-17T00:16:58.028Z,81.47
2018-06-17T00:18:08.115Z,81.52
2018-06-17T00:19:17.926Z,81.18
2018-06-17T00:20:27.750Z,80.89
2018-06-17T00:21:37.618Z,80.89
2018-06-17T00:22:47.749Z,81.18
2018-06-17T00:23:57.566Z,81.18
2018-06-17T00:25:07.641Z,81.27
2018-06-17T00:26:17.709Z,81.47
2018-06-17T00:27:27.789Z,81.47
2018-06-17T00:28:37.877Z,81.18
2018-06-17T00:29:47.690Z,81.33
2018-06-17T00:30:57.509Z,81.37
2018-06-17T00:32:07.319Z,81.18
2018-06-17T00:33:17.392Z,81.14
2018-06-17T00:34:27.527Z,81.18
2018-06-17T00:35:37.617Z,81.47
2018-06-17T00:36:47.691Z,81.09
2018-06-17T00:37:57.763Z,81.09
2018-06-17T00:39:07.923Z,81.09
2018-06-17T00:40:18.046Z,81.14
2018-06-17T00:41:27.864Z,81.14
2018-06-17T00:42:37.944Z,81.47
2018-06-17T00:43:47.777Z,81.37
2018-06-17T00:44:57.597Z,81.47
2018-06-17T00:46:07.711Z,81.47
2018-06-17T00:47:17.894Z,81.57
2018-06-17T00:48:28.127Z,81.62
2018-06-17T00:49:38.219Z,81.18
2018-06-17T00:50:48.288Z,81.04
2018-06-17T00:51:58.424Z,80.89
2018-06-17T00:53:08.227Z,81.09
2018-06-17T00:54:18.317Z,81.09
2018-06-17T00:55:28.395Z,80.89
2018-06-17T00:56:38.201Z,81.66
2018-06-17T00:57:48.352Z,80.89
2018-06-17T00:58:58.434Z,81.57
2018-06-17T01:00:08.232Z,81.09
2018-06-17T01:01:18.309Z,80.89
2018-06-17T01:02:28.378Z,80.94
2018-06-17T01:03:38.506Z,81.18
2018-06-17T01:04:48.635Z,81.47
2018-06-17T01:05:58.705Z,81.27
2018-06-17T01:07:08.766Z,81.33
2018-06-17T01:08:18.838Z,81.33
2018-06-17T01:09:28.967Z,81.24
2018-06-17T01:10:39.041Z,81.33
2018-06-17T01:11:48.864Z,81.43
2018-06-17T01:12:58.925Z,81.24
2018-06-17T01:14:09.013Z,81.43
2018-06-17T01:15:19.088Z,81.43
2018-06-17T01:16:29.153Z,81.43
2018-06-17T01:17:39.222Z,81.24
2018-06-17T01:18:48.806Z,81.24
2018-06-17T01:19:59.092Z,81.43
2018-06-17T01:21:09.190Z,81.33
2018-06-17T01:22:19.269Z,81.33
2018-06-17T01:23:29.095Z,81.14
2018-06-17T01:24:38.898Z,81.24
2018-06-17T01:25:48.718Z,81.24
2018-06-17T01:26:58.839Z,81.14
2018-06-17T01:28:08.937Z,81.14
2018-06-17T01:29:19.008Z,81.14
2018-06-17T01:30:28.819Z,81.14
2018-06-17T01:31:38.637Z,81.04
2018-06-17T01:32:48.713Z,81.04
2018-06-17T01:33:58.778Z,81.33
2018-06-17T01:35:08.838Z,81.33
2018-06-17T01:36:18.896Z,81.33
2018-06-17T01:37:28.975Z,81.43
2018-06-17T01:38:38.547Z,81.52
2018-06-17T01:39:48.616Z,81.43
2018-06-17T01:40:58.691Z,80.85
2018-06-17T01:42:08.776Z,80.94
2018-06-17T01:43:18.597Z,81.24
2018-06-17T01:44:28.717Z,81.14
2018-06-17T01:45:38.803Z,81.24
2018-06-17T01:46:48.880Z,80.94
2018-06-17T01:47:58.932Z,80.94
2018-06-17T01:49:09.004Z,81.24
2018-06-17T01:50:19.079Z,81.04
2018-06-17T01:51:29.172Z,80.94
2018-06-17T01:52:39.254Z,81.14
2018-06-17T01:53:49.326Z,80.85
2018-06-17T01:54:59.133Z,80.85
2018-06-17T01:56:09.287Z,81.24
2018-06-17T01:57:19.366Z,81.43
2018-06-17T01:58:29.435Z,81.04
2018-06-17T01:59:39.513Z,81.33
2018-06-17T02:00:49.575Z,81.43
2018-06-17T02:01:59.144Z,81.43
2018-06-17T02:03:09.220Z,81.43
2018-06-17T02:04:19.032Z,81.33
2018-06-17T02:05:29.104Z,81.2
2018-06-17T02:06:38.915Z,81.24
2018-06-17T02:07:48.722Z,81.24
2018-06-17T02:08:58.797Z,81.33
2018-06-17T02:10:08.871Z,81.29
2018-06-17T02:11:18.936Z,81.2
2018-06-17T02:12:29.009Z,81.43
2018-06-17T02:13:39.075Z,81.43
2018-06-17T02:14:49.151Z,81.43
2018-06-17T02:15:59.214Z,81.33
2018-06-17T02:17:09.296Z,81.43
2018-06-17T02:18:18.850Z,81.39
2018-06-17T02:19:28.665Z,81.24
2018-06-17T02:20:38.727Z,81.24
2018-06-17T02:21:48.792Z,81.24
2018-06-17T02:22:58.604Z,81.29
2018-06-17T02:24:08.422Z,81.33
2018-06-17T02:25:18.524Z,81.43
2018-06-17T02:26:28.325Z,81.43
2018-06-17T02:27:38.140Z,81.52
2018-06-17T02:28:47.962Z,81.24
2018-06-17T02:29:58.039Z,81.43
2018-06-17T02:31:07.599Z,81.43
2018-06-17T02:32:17.687Z,80.94
2018-06-17T02:33:27.485Z,80.85
2018-06-17T02:34:37.605Z,80.85
2018-06-17T02:35:47.689Z,80.94
2018-06-17T02:36:57.777Z,81.04
2018-06-17T02:38:07.861Z,80.94
2018-06-17T02:39:17.415Z,80.85
2018-06-17T02:40:27.490Z,81.24
2018-06-17T02:41:37.570Z,80.94
2018-06-17T02:42:47.376Z,80.94
2018-06-17T02:43:57.512Z,80.85
2018-06-17T02:45:07.584Z,81.33
2018-06-17T02:46:17.661Z,80.94
2018-06-17T02:47:27.735Z,80.94
2018-06-17T02:48:37.814Z,80.94
2018-06-17T02:49:47.908Z,80.94
2018-06-17T02:50:58.022Z,81.14
2018-06-17T02:52:08.097Z,80.94
2018-06-17T02:53:17.922Z,81.14
2018-06-17T02:54:28.005Z,80.76
2018-06-17T02:55:38.082Z,80.85
2018-06-17T02:56:48.385Z,80.85
2018-06-17T02:57:58.458Z,80.94
2018-06-17T02:59:08.263Z,80.66
2018-06-17T03:00:18.371Z,80.66
2018-06-17T03:01:28.722Z,81.24
2018-06-17T03:02:38.674Z,81.24
2018-06-17T03:34:53.305Z,74.76
2018-06-17T03:36:03.373Z,75.63
2018-06-17T03:37:13.435Z,75.92
2018-06-17T03:38:23.231Z,76.78
2018-06-17T03:39:33.038Z,77.36
2018-06-17T03:40:43.106Z,77.75
2018-06-17T03:41:53.171Z,78.33
2018-06-17T03:43:02.983Z,78.85
2018-06-17T03:44:12.769Z,79.13
2018-06-17T03:45:22.838Z,79.13
2018-06-17T03:46:32.708Z,79.13
2018-06-17T03:47:42.786Z,79.08
2018-06-17T03:48:52.923Z,78.98
2018-06-17T03:50:02.995Z,79.85
2018-06-17T03:51:13.070Z,79.5
2018-06-17T03:52:23.152Z,79.31
2018-06-17T03:53:33.250Z,79.5
2018-06-17T03:54:43.320Z,79.44
2018-06-17T03:55:53.126Z,79.54
2018-06-17T03:57:03.187Z,79.83
2018-06-17T03:58:12.999Z,79.74
2018-06-17T03:59:23.074Z,79.64
2018-06-17T04:00:33.147Z,79.54
2018-06-17T04:01:43.222Z,79.58
2018-06-17T04:02:53.312Z,79.58
2018-06-17T04:04:03.464Z,79.58
2018-06-17T04:05:13.813Z,79.58
2018-06-17T04:06:23.623Z,79.77
2018-06-17T04:07:33.690Z,79.58
2018-06-17T04:08:43.761Z,79.97
2018-06-17T04:09:53.878Z,79.91
2018-06-17T04:11:03.164Z,80
2018-06-17T04:12:13.229Z,79.72
2018-06-17T04:13:23.300Z,79.91
2018-06-17T04:14:33.382Z,78.94
2018-06-17T04:15:43.525Z,79.24
2018-06-17T04:16:53.591Z,79.62
2018-06-17T04:18:03.689Z,79.62
2018-06-17T04:19:13.766Z,78.21
2018-06-17T04:20:23.329Z,74.69
2018-06-17T04:21:33.143Z,73.19
2018-06-17T04:22:42.967Z,71.29
2018-06-17T04:23:53.048Z,70.42
2018-06-17T04:25:03.185Z,70.68
2018-06-17T04:26:13.265Z,70.07
2018-06-17T04:27:23.337Z,69.36
2018-06-17T04:28:33.405Z,69.63
2018-06-17T04:29:43.490Z,69.46
2018-06-17T04:30:53.579Z,69.11
2018-06-17T04:32:03.402Z,69.04
2018-06-17T04:33:13.484Z,69.27
2018-06-17T04:34:23.563Z,69.18
2018-06-17T04:35:33.107Z,69.31
2018-06-17T04:36:43.194Z,69.34
2018-06-17T04:37:53.262Z,69.08
2018-06-17T04:39:03.345Z,69.41
2018-06-17T04:40:13.427Z,69.41
2018-06-17T04:41:23.557Z,69.24
2018-06-17T04:42:33.111Z,69.15
2018-06-17T04:43:43.184Z,69.67
2018-06-17T04:44:53.271Z,69.48
2018-06-17T04:46:03.366Z,69.41
2018-06-17T04:47:12.916Z,69.35
2018-06-17T04:48:22.755Z,69.35
2018-06-17T04:49:32.927Z,69.38
2018-06-17T04:50:43.053Z,69.38
2018-06-17T04:51:53.138Z,69.48
2018-06-17T04:53:03.223Z,69.78
2018-06-17T04:54:13.319Z,69.81
2018-06-17T04:55:23.400Z,69.51
2018-06-17T04:56:33.469Z,69.61
2018-06-17T04:57:43.548Z,69.12
2018-06-17T04:58:53.643Z,69.15
2018-06-17T05:00:03.891Z,69.06
2018-06-17T05:01:14.071Z,69.45
2018-06-17T05:02:24.143Z,69.45
2018-06-17T05:03:33.709Z,68.99
2018-06-17T05:04:43.792Z,68.89
2018-06-17T05:05:53.888Z,68.99
2018-06-17T05:07:03.969Z,69.51
2018-06-17T05:08:14.041Z,68.99
2018-06-17T05:09:24.116Z,68.92
2018-06-17T05:10:34.211Z,68.73
2018-06-17T05:11:44.278Z,69.12
2018-06-17T05:12:53.827Z,68.92
2018-06-17T05:14:03.948Z,68.92
2018-06-17T05:15:14.041Z,68.82
2018-06-17T05:16:24.130Z,68.92
2018-06-17T05:17:34.211Z,69.12
2018-06-17T05:18:44.295Z,69.71
2018-06-17T05:19:54.121Z,69.91
2018-06-17T05:21:03.955Z,69.32
2018-06-17T05:22:14.053Z,69.06
2018-06-17T05:23:23.859Z,68.96
2018-06-17T05:24:33.689Z,68.86
2018-06-17T05:25:43.765Z,68.86
2018-06-17T05:26:53.869Z,68.86
2018-06-17T05:28:03.678Z,68.96
2018-06-17T05:29:13.489Z,68.82
2018-06-17T05:30:23.573Z,68.82
2018-06-17T05:31:33.652Z,68.92
2018-06-17T05:32:43.727Z,68.82
2018-06-17T05:33:54.033Z,68.96
2018-06-17T05:35:03.878Z,69.25
2018-06-17T05:36:13.713Z,68.82
2018-06-17T05:37:23.783Z,69.25
2018-06-17T05:38:33.851Z,69.35
2018-06-17T05:39:43.653Z,69.15
2018-06-17T05:40:53.483Z,69.06
2018-06-17T05:42:03.580Z,69.02
2018-06-17T05:43:13.398Z,68.82
2018-06-17T05:44:23.208Z,68.92
2018-06-17T05:45:33.302Z,68.92
2018-06-17T05:46:43.379Z,69.32
2018-06-17T05:47:52.940Z,68.92
2018-06-17T05:49:03.012Z,69.02
2018-06-17T05:50:12.835Z,68.89
2018-06-17T05:51:22.964Z,68.7
2018-06-17T05:52:33.101Z,68.99
2018-06-17T05:53:42.666Z,69.09
2018-06-17T05:54:52.814Z,69.09
2018-06-17T05:56:02.903Z,69.68
2018-06-17T05:57:12.987Z,69.78
2018-06-17T05:58:23.100Z,69.54
2018-06-17T05:59:32.916Z,69.35
2018-06-17T06:00:43.010Z,69.94
2018-06-17T06:01:52.831Z,70.1
2018-06-17T06:03:02.913Z,69.9
2018-06-17T06:04:13.002Z,70.56
2018-06-17T06:05:23.083Z,70.56
2018-06-17T06:06:32.912Z,70.36
2018-06-17T06:07:42.723Z,70.17
2018-06-17T06:08:52.796Z,70.56
2018-06-17T06:10:02.917Z,70.72
2018-06-17T06:11:12.732Z,71.01
2018-06-17T06:12:22.316Z,70.82
2018-06-17T06:13:32.452Z,70.89
2018-06-17T06:14:42.268Z,70.68
2018-06-17T06:15:52.350Z,71.04
2018-06-17T06:17:01.903Z,71.53
2018-06-17T06:18:11.990Z,71.44
2018-06-17T06:19:22.058Z,71.93
2018-06-17T06:20:32.147Z,71.6
2018-06-17T06:21:42.214Z,71.8
2018-06-17T06:22:52.027Z,71.5
2018-06-17T06:24:02.154Z,71.99
2018-06-17T06:25:11.989Z,72.35
2018-06-17T06:26:22.116Z,72.45
2018-06-17T06:27:31.962Z,71.92
2018-06-17T06:28:42.039Z,72.02
2018-06-17T06:29:51.846Z,72.86
2018-06-17T06:31:02.052Z,72.67
2018-06-17T06:32:12.027Z,72.67
2018-06-17T06:33:22.114Z,72.86
2018-06-17T06:34:32.212Z,73.03
2018-06-17T06:35:42.359Z,72.93
2018-06-17T06:36:52.187Z,73.13
2018-06-17T06:38:02.008Z,72.63
2018-06-17T06:39:11.816Z,73.28
2018-06-17T06:40:21.882Z,73.48
2018-06-17T06:41:31.716Z,73.68
2018-06-17T06:42:41.553Z,73.87
2018-06-17T06:43:51.689Z,73.77
2018-06-17T06:45:01.508Z,73.83
2018-06-17T06:46:11.611Z,73.74
2018-06-17T06:47:21.697Z,74.13
2018-06-17T06:48:31.515Z,74.22
2018-06-17T06:49:41.577Z,73.93
2018-06-17T06:50:51.770Z,74.81
2018-06-17T06:52:02.194Z,74.32
2018-06-17T06:53:12.289Z,74.77
2018-06-17T06:54:22.389Z,74.58
2018-06-17T06:55:32.502Z,74.54
2018-06-17T06:56:42.598Z,74.54
2018-06-17T06:57:52.438Z,75.04
2018-06-17T06:59:02.033Z,75.04
2018-06-17T07:00:12.101Z,74.9
2018-06-17T07:01:22.191Z,75.39
2018-06-17T07:02:32.017Z,75.2
2018-06-17T07:03:41.835Z,75.2
2018-06-17T07:04:51.964Z,75.35
2018-06-17T07:06:02.033Z,75.35
2018-06-17T07:07:11.854Z,75.74
2018-06-17T07:08:21.398Z,75.74
2018-06-17T07:09:31.459Z,75.93
2018-06-17T07:10:41.606Z,75.7
2018-06-17T07:11:51.684Z,75.64
2018-06-17T07:13:01.767Z,75.8
2018-06-17T07:14:11.843Z,75.8
2018-06-17T07:15:21.941Z,76.25
2018-06-17T07:16:31.522Z,76.45
2018-06-17T07:17:41.615Z,76.64
2018-06-17T07:18:51.430Z,76.8
2018-06-17T07:20:00.997Z,76.84
2018-06-17T07:21:11.079Z,76.8
2018-06-17T07:22:21.188Z,77.19
2018-06-17T07:23:30.990Z,77.29
2018-06-17T07:24:41.063Z,76.9
2018-06-17T07:25:50.886Z,77.09
2018-06-17T07:27:00.718Z,77
2018-06-17T07:28:10.857Z,77.15
2018-06-17T07:29:20.684Z,77.39
2018-06-17T07:30:30.532Z,77.15
2018-06-17T07:31:40.104Z,77.15
2018-06-17T07:32:50.213Z,77.15
2018-06-17T07:34:00.325Z,76.7
2018-06-17T07:35:11.419Z,77.15
2018-06-17T07:36:21.257Z,77.15
2018-06-17T07:37:31.363Z,77.15
2018-06-17T07:38:41.170Z,77.15
2018-06-17T07:39:51.242Z,76.7
2018-06-17T07:41:01.335Z,76.7
2018-06-17T07:42:11.437Z,76.61
2018-06-17T07:43:21.239Z,76.8
2018-06-17T07:44:31.342Z,76.8
2018-06-17T07:45:41.438Z,76.7
2018-06-17T07:46:51.271Z,76.9
2018-06-17T07:48:01.352Z,77
2018-06-17T07:49:11.421Z,76.9
2018-06-17T07:50:21.272Z,76.7
2018-06-17T07:51:31.363Z,76.9
2018-06-17T07:52:41.440Z,76.93
2018-06-17T07:53:51.270Z,76.61
2018-06-17T07:55:01.344Z,76.74
2018-06-17T07:56:10.912Z,76.8
2018-06-17T07:57:20.991Z,76.8
2018-06-17T07:58:31.085Z,76.7
2018-06-17T07:59:41.175Z,76.93
2018-06-17T08:00:51.281Z,77.03
2018-06-17T08:02:01.379Z,76.93
2018-06-17T08:03:11.458Z,76.51
2018-06-17T08:04:21.542Z,76.54
2018-06-17T08:05:31.355Z,76.64
2018-06-17T08:06:41.181Z,76.64
2018-06-17T08:07:51.015Z,76.45
2018-06-17T08:09:01.098Z,76.48
2018-06-17T08:10:11.196Z,76.29
2018-06-17T08:11:21.268Z,76.39
2018-06-17T08:12:30.830Z,76.39
2018-06-17T08:13:40.942Z,76.39
2018-06-17T08:14:51.012Z,76.52
2018-06-17T08:16:00.903Z,76.52
2018-06-17T08:17:10.727Z,76.52
2018-06-17T08:18:20.822Z,76.42
2018-06-17T08:19:30.905Z,76.52
2018-06-17T08:20:40.998Z,76.56
2018-06-17T08:21:51.090Z,76.46
2018-06-17T08:23:01.175Z,76.37
2018-06-17T08:24:11.251Z,76.56
2018-06-17T08:25:21.077Z,76.66
2018-06-17T08:26:31.220Z,76.76
2018-06-17T08:27:41.317Z,76.56
2018-06-17T08:28:51.155Z,76.76
2018-06-17T08:30:00.999Z,76.86
2018-06-17T08:31:11.092Z,76.37
2018-06-17T08:32:20.925Z,76.56
2018-06-17T08:33:31.019Z,76.6
2018-06-17T08:34:41.093Z,76.89
2018-06-17T08:35:51.193Z,76.01
2018-06-17T08:37:01.045Z,75.92
2018-06-17T08:38:10.879Z,75.72
2018-06-17T08:39:20.980Z,76.79
2018-06-17T08:40:30.535Z,76.4
2018-06-17T08:41:40.631Z,76.5
2018-06-17T08:42:50.712Z,76.5
2018-06-17T08:44:00.922Z,76.79
2018-06-17T08:45:11.121Z,76.6
2018-06-17T08:46:21.217Z,76.79
2018-06-17T08:47:31.313Z,76.6
2018-06-17T08:48:41.409Z,76.7
2018-06-17T08:49:51.497Z,76.89
2018-06-17T08:51:01.584Z,76.79
2018-06-17T08:52:11.664Z,76.79
2018-06-17T08:53:21.745Z,76.79
2018-06-17T08:54:31.594Z,76.64
2018-06-17T08:55:41.682Z,76.54
2018-06-17T08:56:51.524Z,76.73
2018-06-17T08:58:01.613Z,76.64
2018-06-17T08:59:11.823Z,76.64
2018-06-17T09:00:22.110Z,76.83
2018-06-17T09:01:32.205Z,76.64
2018-06-17T09:02:42.434Z,76.83
2018-06-17T09:03:52.637Z,76.54
2018-06-17T09:05:02.718Z,76.64
2018-06-17T09:06:12.523Z,76.73
2018-06-17T09:07:22.599Z,76.73
2018-06-17T09:08:32.665Z,77.03
2018-06-17T09:09:42.754Z,76.93
2018-06-17T09:10:52.848Z,76.93
2018-06-17T09:12:02.658Z,77.12
2018-06-17T09:13:12.489Z,76.93
2018-06-17T09:14:22.318Z,76.54
2018-06-17T09:15:32.409Z,76.73
2018-06-17T09:16:42.495Z,76.83
2018-06-17T09:17:52.578Z,76.57
2018-06-17T09:19:02.688Z,76.77
2018-06-17T09:20:12.804Z,76.97
2018-06-17T09:21:22.641Z,76.48
2018-06-17T09:22:32.715Z,76.48
2018-06-17T09:23:42.800Z,76.57
2018-06-17T09:24:52.637Z,76.81
2018-06-17T09:26:02.747Z,76.9
2018-06-17T09:27:12.845Z,76.81
2018-06-17T09:28:22.959Z,76.61
2018-06-17T09:29:33.050Z,76.61
2018-06-17T09:30:43.128Z,76.03
2018-06-17T09:31:53.526Z,75.93
2018-06-17T09:33:03.537Z,76.16
2018-06-17T09:34:13.376Z,75.67
2018-06-17T09:35:23.205Z,75.51
2018-06-17T09:36:33.314Z,75.42
2018-06-17T09:37:43.418Z,75.55
2018-06-17T09:38:53.257Z,75.74
2018-06-17T09:40:03.345Z,76.14
2018-06-17T09:41:13.436Z,75.84
2018-06-17T09:42:23.542Z,75.74
2018-06-17T09:43:33.640Z,75.65
2018-06-17T09:44:43.733Z,75.68
2018-06-17T09:45:53.533Z,76.17
2018-06-17T09:47:03.627Z,75.88
2018-06-17T09:48:13.706Z,76.07
2018-06-17T09:49:23.275Z,76.37
2018-06-17T09:50:33.390Z,75.88
2018-06-17T09:51:43.227Z,76.17
2018-06-17T09:52:53.313Z,76.17
2018-06-17T09:54:03.418Z,76.27
2018-06-17T09:55:13.492Z,76.27
2018-06-17T09:56:23.599Z,75.98
2018-06-17T09:57:33.451Z,76.17
2018-06-17T09:58:43.536Z,76.07
2018-06-17T09:59:53.362Z,76.17
2018-06-17T10:01:02.990Z,76.17
2018-06-17T10:02:13.085Z,76.17
2018-06-17T10:03:22.932Z,76.07
2018-06-17T10:04:32.769Z,75.98
2018-06-17T10:05:42.892Z,76.21
2018-06-17T10:06:52.999Z,75.92
2018-06-17T10:08:03.092Z,75.92
2018-06-17T10:09:12.939Z,76.21
2018-06-17T10:10:22.756Z,76.4
2018-06-17T10:11:32.866Z,76.8
2018-06-17T10:12:43.007Z,76.11
2018-06-17T10:13:53.104Z,76.21
2018-06-17T10:15:03.196Z,76.21
2018-06-17T10:16:13.035Z,76.11
2018-06-17T10:17:23.120Z,76.01
2018-06-17T10:18:33.265Z,76.01
2018-06-17T10:19:43.358Z,76.01
2018-06-17T10:20:53.446Z,76.11
2018-06-17T10:22:03.285Z,76.21
2018-06-17T10:23:12.839Z,76.25
2018-06-17T10:24:22.965Z,76.25
2018-06-17T10:25:32.562Z,76.34
2018-06-17T10:26:42.641Z,76.25
2018-06-17T10:27:52.731Z,76.25
2018-06-17T10:29:02.854Z,76.15
2018-06-17T10:30:12.949Z,76.05
2018-06-17T10:31:22.795Z,76.25
2018-06-17T10:32:32.908Z,76.25
2018-06-17T10:33:43.021Z,76.7
2018-06-17T10:34:53.118Z,76.9
2018-06-17T10:36:03.216Z,76.05
2018-06-17T10:37:13.041Z,76.44
2018-06-17T10:38:23.125Z,76.25
2018-06-17T10:39:33.205Z,75.7
2018-06-17T10:40:43.019Z,75.14
2018-06-17T10:41:53.108Z,75.44
2018-06-17T10:43:03.199Z,74.95
2018-06-17T10:44:13.351Z,74.98
2018-06-17T10:45:23.583Z,75.51
2018-06-17T10:46:33.672Z,75.02
2018-06-17T10:47:43.825Z,74.63
2018-06-17T10:48:53.979Z,74.46
2018-06-17T10:50:03.810Z,74.11
2018-06-17T10:51:14.167Z,73.94
2018-06-17T10:52:24.301Z,73.85
2018-06-17T10:53:34.933Z,74.18
2018-06-17T10:54:45.051Z,74.41
2018-06-17T10:55:55.644Z,73.72
2018-06-17T10:57:07.494Z,74.41
2018-06-17T10:58:17.658Z,75.07
2018-06-17T10:59:27.496Z,75.23
2018-06-17T11:00:37.352Z,74.73
2018-06-17T11:01:47.201Z,75.59
2018-06-17T11:02:57.324Z,75.74
2018-06-17T11:04:07.650Z,76.14
2018-06-17T11:05:17.970Z,76.1
2018-06-17T11:06:28.373Z,76.69
2018-06-17T11:07:38.486Z,76.5
2018-06-17T11:08:48.595Z,76.46
2018-06-17T11:09:58.706Z,76.26
2018-06-17T11:11:08.847Z,76.52
2018-06-17T11:12:18.998Z,76.06
2018-06-17T11:13:29.401Z,75.73
2018-06-17T11:14:39.533Z,75.27
2018-06-17T11:15:49.767Z,75.31
2018-06-17T11:16:59.870Z,75.51
2018-06-17T11:18:09.999Z,75.77
2018-06-17T11:19:20.104Z,75.93
2018-06-17T11:20:30.215Z,75.73
2018-06-17T11:21:40.297Z,74.85
2018-06-17T11:22:50.392Z,74.73
2018-06-17T11:24:00.485Z,74.66
2018-06-17T11:25:10.608Z,74.6
2018-06-17T11:26:20.449Z,75.55
2018-06-17T11:27:30.803Z,75.51
2018-06-17T11:28:40.886Z,75.12
2018-06-17T11:29:50.455Z,75.37
2018-06-17T11:31:00.299Z,75.67
2018-06-17T11:32:10.418Z,75.57
2018-06-17T11:33:20.508Z,76.12
2018-06-17T11:34:30.630Z,76.28
2018-06-17T11:35:40.734Z,75.95
2018-06-17T11:36:50.854Z,76.4
2018-06-17T11:38:00.965Z,74.97
2018-06-17T11:39:11.381Z,74.81
2018-06-17T11:40:21.773Z,74.55
2018-06-17T11:41:31.858Z,74.49
2018-06-17T11:42:41.715Z,74.79
2018-06-17T11:43:51.844Z,74.43
2018-06-17T11:45:01.929Z,74.33
2018-06-17T11:46:12.012Z,74.43
2018-06-17T11:47:22.134Z,75.12
2018-06-17T11:48:32.231Z,74.43
2018-06-17T11:49:42.337Z,74.43
2018-06-17T11:50:52.254Z,75.02
2018-06-17T11:52:02.557Z,75.02
2018-06-17T11:53:12.671Z,74.92
2018-06-17T11:54:22.766Z,75.05
2018-06-17T11:55:32.863Z,74.96
2018-06-17T11:56:42.958Z,74.96
2018-06-17T11:57:53.067Z,74.46
2018-06-17T11:59:03.378Z,74.46
2018-06-17T12:00:13.483Z,74.66
2018-06-17T12:01:23.571Z,74.69
2018-06-17T12:02:33.673Z,74.3
2018-06-17T12:03:43.566Z,74.11
2018-06-17T12:04:53.654Z,74.4
2018-06-17T12:06:03.797Z,74.15
2018-06-17T12:07:13.654Z,74.24
2018-06-17T12:08:23.744Z,73.59
2018-06-17T12:09:33.899Z,73.98
2018-06-17T12:10:44.270Z,73.33
2018-06-17T12:11:54.377Z,73.13
2018-06-17T12:13:04.540Z,73.62
2018-06-17T12:14:14.402Z,73.43
2018-06-17T12:15:24.511Z,73.43
2018-06-17T12:16:34.603Z,73.52
2018-06-17T12:17:44.478Z,73.62
2018-06-17T12:18:54.602Z,73.07
2018-06-17T12:20:04.425Z,73.07
2018-06-17T12:21:14.752Z,72.81
2018-06-17T12:22:24.581Z,72.61
2018-06-17T12:23:34.424Z,72.51
2018-06-17T12:24:44.570Z,72.15
2018-06-17T12:25:54.425Z,72.09
2018-06-17T12:27:04.607Z,71.83
2018-06-17T12:28:14.695Z,72.12
2018-06-17T12:29:24.824Z,72.58
2018-06-17T12:30:34.939Z,73.47
2018-06-17T12:31:45.032Z,74.29
2018-06-17T12:32:55.137Z,74.44
2018-06-17T12:34:05.261Z,75.2
2018-06-17T12:35:15.377Z,75.46
2018-06-17T12:36:25.484Z,75.13
2018-06-17T12:37:35.321Z,75.48
2018-06-17T12:38:45.485Z,75.48
2018-06-17T12:39:55.595Z,75.55
2018-06-17T12:41:05.678Z,75.15
2018-06-17T12:42:15.781Z,75.45
2018-06-17T12:43:25.877Z,75.35
2018-06-17T12:44:35.694Z,75.45
2018-06-17T12:45:45.778Z,75.21
2018-06-17T12:46:55.894Z,75.02
2018-06-17T12:48:06.000Z,75.35
2018-06-17T12:49:16.118Z,75.35
2018-06-17T12:50:26.329Z,74.66
2018-06-17T12:51:36.347Z,74.6
2018-06-17T12:52:46.443Z,74.69
2018-06-17T12:53:56.258Z,74.73
2018-06-17T12:55:06.358Z,74.83
2018-06-17T12:56:16.190Z,75.05
2018-06-17T12:57:26.016Z,75.41
2018-06-17T12:58:35.855Z,75.41
2018-06-17T12:59:45.939Z,75.9
2018-06-17T13:00:56.042Z,75.57
2018-06-17T13:02:06.142Z,76.32
2018-06-17T13:03:16.242Z,76.22
2018-06-17T13:04:26.344Z,76.48
2018-06-17T13:05:36.557Z,76.18
2018-06-17T13:06:46.678Z,76.25
2018-06-17T13:07:56.795Z,76.31
2018-06-17T13:09:06.925Z,76.21
2018-06-17T13:10:17.011Z,77
2018-06-17T13:11:26.855Z,76.86
2018-06-17T13:12:37.046Z,76.66
2018-06-17T13:13:46.991Z,76.96
2018-06-17T13:14:57.082Z,77.06
2018-06-17T13:16:06.915Z,77.01
2018-06-17T13:17:16.469Z,76.92
2018-06-17T13:18:26.568Z,77.01
2018-06-17T13:19:36.727Z,76.72
2018-06-17T13:20:46.554Z,76.82
2018-06-17T13:21:56.116Z,76.98
2018-06-17T13:23:05.967Z,76.78
2018-06-17T13:24:16.063Z,76.78
2018-06-17T13:25:25.363Z,76.68
2018-06-17T13:26:35.484Z,76.88
2018-06-17T13:27:45.584Z,76.78
2018-06-17T13:28:55.698Z,76.68
2018-06-17T13:30:06.038Z,76.84
2018-06-17T13:31:15.911Z,76.94
2018-06-17T13:32:25.741Z,76.35
2018-06-17T13:33:35.844Z,76.06
2018-06-17T13:34:45.954Z,76.06
2018-06-17T13:35:55.796Z,76.16
2018-06-17T13:37:05.883Z,76.26
2018-06-17T13:38:16.005Z,76.84
2018-06-17T13:39:26.098Z,76.06
2018-06-17T13:40:36.194Z,76.06
2018-06-17T13:41:46.036Z,76.06
2018-06-17T13:42:56.302Z,76.06
2018-06-17T13:44:06.383Z,75.87
2018-06-17T13:45:16.482Z,76.06
2018-06-17T13:46:26.569Z,76.16
2018-06-17T13:47:36.891Z,75.87
2018-06-17T13:48:46.732Z,76.26
2018-06-17T13:49:56.836Z,76.94
2018-06-17T13:51:06.920Z,76.45
2018-06-17T13:52:16.752Z,76.71
2018-06-17T13:53:26.908Z,76.81
2018-06-17T13:54:36.740Z,76.71
2018-06-17T13:55:46.596Z,77
2018-06-17T13:56:56.834Z,77.2
2018-06-17T13:58:07.169Z,77.29
2018-06-17T13:59:17.276Z,77.06
2018-06-17T14:00:27.445Z,76.97
2018-06-17T14:01:37.544Z,77.65
2018-06-17T14:02:47.473Z,77.26
2018-06-17T14:03:57.729Z,77.12
2018-06-17T14:05:07.828Z,77.51
2018-06-17T14:06:17.951Z,77.12
2018-06-17T14:07:27.782Z,77.42
2018-06-17T14:08:37.899Z,77.32
2018-06-17T14:09:47.989Z,77.12
2018-06-17T14:10:58.111Z,76.93
2018-06-17T14:12:08.231Z,77.12
2018-06-17T14:13:18.346Z,77.28
2018-06-17T14:14:28.511Z,77.32
2018-06-17T14:15:38.337Z,76.93
2018-06-17T14:16:48.456Z,77.32
2018-06-17T14:17:58.562Z,76.93
2018-06-17T14:19:08.664Z,77.12
2018-06-17T14:20:18.761Z,77.09
2018-06-17T14:21:28.877Z,76.89
2018-06-17T14:22:38.971Z,77.28
2018-06-17T14:23:49.086Z,77.28
2018-06-17T14:24:59.207Z,76.89
2018-06-17T14:26:09.302Z,76.89
2018-06-17T14:27:19.120Z,76.89
2018-06-17T14:28:28.961Z,77.09
2018-06-17T14:29:38.850Z,77.28
2018-06-17T14:30:48.975Z,77.19
2018-06-17T14:31:59.095Z,77.22
2018-06-17T14:33:09.187Z,77.38
2018-06-17T14:34:19.298Z,77.71
2018-06-17T14:35:29.434Z,77.19
2018-06-17T14:36:39.521Z,77.51
2018-06-17T14:37:49.100Z,77.03
2018-06-17T14:38:59.240Z,77.22
2018-06-17T14:40:09.354Z,76.73
2018-06-17T14:41:19.510Z,76.83
2018-06-17T14:42:29.341Z,77.03
2018-06-17T14:43:39.437Z,76.54
2018-06-17T14:44:49.297Z,76.64
2018-06-17T14:45:59.131Z,77.12
2018-06-17T14:47:09.272Z,76.93
2018-06-17T14:48:19.453Z,77.12
2018-06-17T14:49:29.571Z,77.22
2018-06-17T14:50:39.672Z,77.32
2018-06-17T14:51:49.795Z,76.83
2018-06-17T14:52:59.929Z,76.93
2018-06-17T14:54:10.025Z,76.83
2018-06-17T14:55:20.117Z,76.83
2018-06-17T14:56:29.965Z,76.67
2018-06-17T14:57:40.106Z,76.67
2018-06-17T14:58:50.024Z,76.97
2018-06-17T15:00:00.165Z,76.87
2018-06-17T15:01:10.320Z,76.77
2018-06-17T15:02:20.542Z,76.48
2018-06-17T15:03:30.541Z,77.16
2018-06-17T15:04:40.836Z,76.97
2018-06-17T15:05:50.947Z,77.12
2018-06-17T15:07:01.066Z,77.12
2018-06-17T15:08:11.326Z,76.93
2018-06-17T15:09:21.537Z,77.42
2018-06-17T15:10:32.014Z,77.12
2018-06-17T15:11:41.959Z,77.42
2018-06-17T15:12:51.951Z,77.32
2018-06-17T15:14:02.118Z,77.38
2018-06-17T15:15:12.315Z,77.48
2018-06-17T15:16:22.508Z,77.58
2018-06-17T15:17:32.610Z,77.87
2018-06-17T15:18:42.722Z,77.67
2018-06-17T15:19:52.822Z,77.77
2018-06-17T15:21:02.690Z,77.83
2018-06-17T15:22:12.815Z,77.87
2018-06-17T15:23:22.989Z,77.97
2018-06-17T15:24:33.116Z,77.67
2018-06-17T15:25:43.214Z,77.28
2018-06-17T15:26:53.318Z,77.58
2018-06-17T15:28:03.422Z,77.28
2018-06-17T15:29:13.539Z,77.38
2018-06-17T15:30:23.373Z,77.38
2018-06-17T15:31:33.484Z,77.54
2018-06-17T15:32:43.594Z,77.67
2018-06-17T15:33:53.749Z,77.64
2018-06-17T15:35:03.880Z,77.64